createdAt,value
2023-02-19T00:02:03.442Z,101380.41
2023-02-19T00:04:48.680Z,101394.19
2023-02-19T00:07:33.414Z,101383.50
2023-02-19T00:10:18.635Z,101375.66
2023-02-19T00:13:03.441Z,101373.88
2023-02-19T00:15:48.642Z,101373.75
2023-02-19T00:18:33.669Z,101378.31
2023-02-19T00:21:19.282Z,101373.59
2023-02-19T00:24:06.600Z,101374.44
2023-02-19T00:26:51.735Z,101380.28
2023-02-19T00:29:36.829Z,101376.66
2023-02-19T00:32:21.813Z,101371.94
2023-02-19T00:35:06.634Z,101363.03
2023-02-19T00:37:51.798Z,101360.91
2023-02-19T00:40:38.248Z,101349.22
2023-02-19T00:43:23.399Z,101354.38
2023-02-19T00:46:08.195Z,101356.03
2023-02-19T00:48:54.174Z,101347.00
2023-02-19T00:51:39.352Z,101345.06
2023-02-19T00:54:24.723Z,101345.44
2023-02-19T00:57:09.853Z,101353.53
2023-02-19T00:59:54.884Z,101351.06
2023-02-19T01:02:39.877Z,101349.50
2023-02-19T01:05:24.912Z,101344.06
2023-02-19T01:08:09.865Z,101326.25
2023-02-19T01:10:54.893Z,101326.53
2023-02-19T01:13:40.777Z,101320.25
2023-02-19T01:16:27.351Z,101314.81
2023-02-19T01:19:15.062Z,101320.09
2023-02-19T01:22:00.165Z,101321.94
2023-02-19T01:24:45.434Z,101317.34
2023-02-19T01:27:30.383Z,101312.03
2023-02-19T01:30:15.805Z,101314.97
2023-02-19T01:33:00.838Z,101313.16
2023-02-19T01:35:46.030Z,101304.50
2023-02-19T01:38:31.036Z,101302.16
2023-02-19T01:41:19.382Z,101306.88
2023-02-19T01:44:07.896Z,101313.44
2023-02-19T01:46:57.283Z,101312.03
2023-02-19T01:49:51.457Z,101305.22
2023-02-19T01:52:36.907Z,101300.75
2023-02-19T01:55:23.496Z,101294.50
2023-02-19T01:58:09.672Z,101301.72
2023-02-19T02:00:54.673Z,101307.00
2023-02-19T02:03:41.858Z,101307.56
2023-02-19T02:06:34.127Z,101306.00
2023-02-19T02:09:39.716Z,101308.25
2023-02-19T02:12:24.953Z,101303.53
2023-02-19T02:15:09.908Z,101303.53
2023-02-19T02:18:10.228Z,101302.69
2023-02-19T02:21:04.484Z,101302.56
2023-02-19T02:24:12.828Z,101297.09
2023-02-19T02:27:07.057Z,101301.84
2023-02-19T02:30:07.329Z,101289.28
2023-02-19T02:33:10.952Z,101292.78
2023-02-19T02:36:00.783Z,101289.28
2023-02-19T02:38:48.198Z,101284.81
2023-02-19T02:41:33.691Z,101292.09
2023-02-19T02:44:18.500Z,101288.03
2023-02-19T02:47:06.548Z,101297.53
2023-02-19T02:50:05.035Z,101298.78
2023-02-19T02:53:14.810Z,101289.75
2023-02-19T02:56:00.410Z,101303.25
2023-02-19T02:58:48.678Z,101299.09
2023-02-19T03:01:56.600Z,101293.09
2023-02-19T03:05:09.400Z,101308.16
2023-02-19T03:08:16.398Z,101310.78
2023-02-19T03:11:24.084Z,101312.75
2023-02-19T03:14:42.799Z,101319.56
2023-02-19T03:18:05.338Z,101321.38
2023-02-19T03:20:55.585Z,101328.63
2023-02-19T03:24:01.166Z,101331.28
2023-02-19T03:26:53.664Z,101328.31
2023-02-19T03:29:41.071Z,101339.50
2023-02-19T03:32:34.698Z,101342.41
2023-02-19T03:35:24.483Z,101346.88
2023-02-19T03:38:18.529Z,101342.53
2023-02-19T03:41:10.274Z,101347.00
2023-02-19T03:44:18.504Z,101356.47
2023-02-19T03:47:13.626Z,101353.41
2023-02-19T03:50:01.515Z,101353.00
2023-02-19T03:52:58.380Z,101344.63
2023-02-19T03:56:00.044Z,101346.72
2023-02-19T03:58:56.489Z,101351.88
2023-02-19T04:01:50.832Z,101357.16
2023-02-19T04:04:41.087Z,101358.00
2023-02-19T04:07:28.324Z,101362.31
2023-02-19T04:10:14.910Z,101362.31
2023-02-19T04:13:06.659Z,101366.34
2023-02-19T04:15:54.970Z,101367.88
2023-02-19T04:18:43.134Z,101373.03
2023-02-19T04:21:30.545Z,101383.75
2023-02-19T04:24:26.406Z,101373.31
2023-02-19T04:27:11.479Z,101370.94
2023-02-19T04:29:56.564Z,101391.00
2023-02-19T04:32:41.637Z,101380.56
2023-02-19T04:35:26.399Z,101387.50
2023-02-19T04:38:13.631Z,101397.41
2023-02-19T04:40:58.489Z,101391.84
2023-02-19T04:43:43.826Z,101393.94
2023-02-19T04:46:28.741Z,101394.91
2023-02-19T04:49:13.825Z,101390.19
2023-02-19T04:51:58.548Z,101402.56
2023-02-19T04:54:43.820Z,101405.22
2023-02-19T04:57:28.744Z,101405.22
2023-02-19T05:00:14.160Z,101407.41
2023-02-19T05:02:59.915Z,101410.06
2023-02-19T05:05:44.918Z,101418.97
2023-02-19T05:08:29.796Z,101427.47
2023-02-19T05:11:14.874Z,101424.81
2023-02-19T05:14:00.010Z,101424.50
2023-02-19T05:16:44.950Z,101428.38
2023-02-19T05:19:29.833Z,101423.09
2023-02-19T05:22:15.014Z,101431.88
2023-02-19T05:24:59.891Z,101431.88
2023-02-19T05:27:44.939Z,101441.59
2023-02-19T05:30:29.882Z,101435.34
2023-02-19T05:33:16.631Z,101436.22
2023-02-19T05:36:09.221Z,101439.16
2023-02-19T05:38:55.887Z,101450.84
2023-02-19T05:41:41.246Z,101434.97
2023-02-19T05:44:27.503Z,101451.69
2023-02-19T05:47:12.358Z,101474.34
2023-02-19T05:49:57.185Z,101466.97
2023-02-19T05:52:43.511Z,101469.88
2023-02-19T05:55:29.536Z,101479.03
2023-02-19T05:58:14.755Z,101489.03
2023-02-19T06:00:59.721Z,101492.66
2023-02-19T06:03:44.868Z,101492.94
2023-02-19T06:06:29.783Z,101501.13
2023-02-19T06:09:14.990Z,101502.66
2023-02-19T06:11:59.768Z,101498.47
2023-02-19T06:14:45.061Z,101505.97
2023-02-19T06:17:30.568Z,101499.69
2023-02-19T06:20:15.528Z,101503.31
2023-02-19T06:23:00.578Z,101505.56
2023-02-19T06:25:45.780Z,101504.03
2023-02-19T06:28:30.823Z,101503.63
2023-02-19T06:31:17.061Z,101507.94
2023-02-19T06:34:05.844Z,101511.44
2023-02-19T06:36:51.098Z,101504.78
2023-02-19T06:39:36.442Z,101508.38
2023-02-19T06:42:21.482Z,101507.69
2023-02-19T06:45:06.685Z,101512.13
2023-02-19T06:47:51.424Z,101510.47
2023-02-19T06:50:36.403Z,101522.84
2023-02-19T06:53:21.987Z,101522.00
2023-02-19T06:56:30.344Z,101526.59
2023-02-19T06:59:19.017Z,101532.00
2023-02-19T07:02:05.078Z,101532.44
2023-02-19T07:04:50.146Z,101529.53
2023-02-19T07:07:35.226Z,101540.97
2023-02-19T07:10:20.100Z,101536.63
2023-02-19T07:13:05.090Z,101545.81
2023-02-19T07:15:52.176Z,101555.78
2023-02-19T07:18:38.703Z,101560.97
2023-02-19T07:21:23.718Z,101567.63
2023-02-19T07:24:10.060Z,101567.88
2023-02-19T07:26:54.834Z,101584.50
2023-02-19T07:29:39.672Z,101589.78
2023-02-19T07:32:24.912Z,101590.19
2023-02-19T07:35:09.866Z,101599.25
2023-02-19T07:37:55.103Z,101614.63
2023-02-19T07:40:39.925Z,101609.47
2023-02-19T07:43:26.670Z,101606.75
2023-02-19T07:46:13.722Z,101621.13
2023-02-19T07:48:59.688Z,101623.69
2023-02-19T07:51:45.027Z,101633.97
2023-02-19T07:54:29.808Z,101631.44
2023-02-19T07:57:15.121Z,101631.78
2023-02-19T08:00:00.128Z,101643.09
2023-02-19T08:03:00.404Z,101650.19
2023-02-19T08:05:45.957Z,101646.59
2023-02-19T08:08:31.082Z,101647.56
2023-02-19T08:11:35.016Z,101640.66
2023-02-19T08:14:24.517Z,101654.03
2023-02-19T08:17:09.583Z,101663.50
2023-02-19T08:19:54.690Z,101672.47
2023-02-19T08:22:39.581Z,101665.94
2023-02-19T08:25:25.744Z,101660.16
2023-02-19T08:28:11.762Z,101664.69
2023-02-19T08:31:02.142Z,101663.31
2023-02-19T08:33:47.140Z,101669.31
2023-02-19T08:36:32.044Z,101664.91
2023-02-19T08:39:18.430Z,101672.72
2023-02-19T08:42:05.001Z,101671.50
2023-02-19T08:44:49.999Z,101669.47
2023-02-19T08:47:36.089Z,101671.47
2023-02-19T08:50:22.257Z,101668.28
2023-02-19T08:53:07.267Z,101669.34
2023-02-19T08:55:53.087Z,101675.69
2023-02-19T08:58:38.953Z,101681.03
2023-02-19T09:01:23.912Z,101688.25
2023-02-19T09:04:12.906Z,101687.78
2023-02-19T09:06:58.039Z,101676.94
2023-02-19T09:09:43.264Z,101678.66
2023-02-19T09:12:28.215Z,101670.22
2023-02-19T09:15:13.222Z,101684.81
2023-02-19T09:17:58.165Z,101676.00
2023-02-19T09:20:43.279Z,101679.34
2023-02-19T09:23:28.529Z,101688.47
2023-02-19T09:26:14.005Z,101682.44
2023-02-19T09:28:58.737Z,101684.22
2023-02-19T09:31:44.317Z,101681.22
2023-02-19T09:34:29.293Z,101692.50
2023-02-19T09:37:14.599Z,101717.66
2023-02-19T09:39:59.446Z,101716.00
2023-02-19T09:42:44.615Z,101716.91
2023-02-19T09:45:30.087Z,101719.19
2023-02-19T09:48:14.856Z,101724.84
2023-02-19T09:51:01.644Z,101729.44
2023-02-19T09:53:50.707Z,101736.53
2023-02-19T09:56:35.807Z,101736.03
2023-02-19T09:59:24.473Z,101740.63
2023-02-19T10:02:17.208Z,101749.06
2023-02-19T10:05:03.614Z,101757.59
2023-02-19T10:07:52.225Z,101756.41
2023-02-19T10:10:37.556Z,101765.72
2023-02-19T10:13:30.311Z,101765.66
2023-02-19T10:16:21.186Z,101765.41
2023-02-19T10:19:10.485Z,101769.19
2023-02-19T10:21:56.640Z,101769.94
2023-02-19T10:24:43.624Z,101779.88
2023-02-19T10:27:31.602Z,101782.66
2023-02-19T10:30:21.477Z,101809.56
2023-02-19T10:33:12.606Z,101810.41
2023-02-19T10:36:04.295Z,101822.81
2023-02-19T10:38:49.094Z,101813.50
2023-02-19T10:41:40.577Z,101815.91
2023-02-19T10:44:30.537Z,101811.31
2023-02-19T10:47:22.347Z,101813.56
2023-02-19T10:50:21.462Z,101831.50
2023-02-19T10:53:06.354Z,101839.44
2023-02-19T10:56:13.257Z,101850.06
2023-02-19T10:59:26.062Z,101859.06
2023-02-19T11:02:19.412Z,101833.41
2023-02-19T11:05:07.240Z,101828.59
2023-02-19T11:07:55.001Z,101821.66
2023-02-19T11:10:42.157Z,101822.88
2023-02-19T11:13:32.072Z,101808.31
2023-02-19T11:16:17.001Z,101812.81
2023-02-19T11:19:02.935Z,101809.94
2023-02-19T11:21:48.217Z,101828.50
2023-02-19T11:24:37.466Z,101829.28
2023-02-19T11:27:24.517Z,101824.50
2023-02-19T11:30:36.236Z,101823.34
2023-02-19T11:33:27.279Z,101821.34
2023-02-19T11:36:15.508Z,101829.16
2023-02-19T11:39:15.754Z,101848.44
2023-02-19T11:42:19.304Z,101844.91
2023-02-19T11:45:26.165Z,101851.25
2023-02-19T11:48:31.638Z,101851.56
2023-02-19T11:51:37.938Z,101846.47
2023-02-19T11:54:58.075Z,101850.19
2023-02-19T11:57:48.153Z,101843.91
2023-02-19T12:00:58.841Z,101843.72
2023-02-19T12:03:58.829Z,101828.59
2023-02-19T12:07:24.338Z,101832.63
2023-02-19T12:10:24.881Z,101826.63
2023-02-19T12:13:28.556Z,101842.72
2023-02-19T12:16:28.312Z,101832.56
2023-02-19T12:19:32.077Z,101828.94
2023-02-19T12:22:30.909Z,101827.91
2023-02-19T12:25:29.566Z,101834.03
2023-02-19T12:28:23.843Z,101823.44
2023-02-19T12:31:14.414Z,101821.44
2023-02-19T12:34:44.067Z,101831.16
2023-02-19T12:37:52.686Z,101840.81
2023-02-19T12:40:56.541Z,101820.56
2023-02-19T12:43:52.650Z,101822.53
2023-02-19T12:46:51.383Z,101824.41
2023-02-19T12:49:46.331Z,101826.63
2023-02-19T12:52:40.153Z,101840.25
2023-02-19T12:55:35.732Z,101836.41
2023-02-19T12:58:29.629Z,101831.81
2023-02-19T13:01:23.111Z,101827.53
2023-02-19T13:04:21.768Z,101818.56
2023-02-19T13:07:12.517Z,101825.94
2023-02-19T13:10:25.220Z,101825.44
2023-02-19T13:13:17.486Z,101831.09
2023-02-19T13:16:09.510Z,101842.00
2023-02-19T13:19:00.290Z,101842.59
2023-02-19T13:22:11.454Z,101857.56
2023-02-19T13:24:57.400Z,101861.59
2023-02-19T13:28:01.181Z,101862.00
2023-02-19T13:31:05.342Z,101866.25
2023-02-19T13:34:05.494Z,101876.75
2023-02-19T13:36:50.997Z,101887.63
2023-02-19T13:39:36.036Z,101892.97
2023-02-19T13:42:57.982Z,101888.56
2023-02-19T13:45:46.849Z,101882.91
2023-02-19T13:48:31.692Z,101897.94
2023-02-19T13:51:16.937Z,101903.69
2023-02-19T13:54:13.912Z,101905.16
2023-02-19T13:57:18.001Z,101914.53
2023-02-19T14:00:49.336Z,101904.78
2023-02-19T14:03:34.640Z,101896.38
2023-02-19T14:06:20.095Z,101904.84
2023-02-19T14:09:34.079Z,101902.69
2023-02-19T14:12:21.644Z,101896.13
2023-02-19T14:15:39.123Z,101890.19
2023-02-19T14:18:46.584Z,101893.19
2023-02-19T14:21:37.482Z,101904.78
2023-02-19T14:24:23.424Z,101910.88
2023-02-19T14:27:08.322Z,101905.94
2023-02-19T14:29:53.884Z,101905.94
2023-02-19T14:32:43.587Z,101913.16
2023-02-19T14:35:43.026Z,101902.94
2023-02-19T14:38:59.179Z,101901.84
2023-02-19T14:41:47.958Z,101915.69
2023-02-19T14:44:50.066Z,101923.31
2023-02-19T14:47:37.221Z,101921.03
2023-02-19T14:50:30.328Z,101929.69
2023-02-19T14:53:16.191Z,101925.66
2023-02-19T14:56:01.549Z,101924.63
2023-02-19T14:59:11.024Z,101917.38
2023-02-19T15:02:20.933Z,101923.13
2023-02-19T15:05:15.515Z,101925.06
2023-02-19T15:08:04.773Z,101927.97
2023-02-19T15:10:49.722Z,101929.56
2023-02-19T15:13:34.971Z,101928.72
2023-02-19T15:16:23.679Z,101917.75
2023-02-19T15:19:16.157Z,101908.53
2023-02-19T15:22:01.922Z,101911.06
2023-02-19T15:24:48.662Z,101898.19
2023-02-19T15:27:35.007Z,101896.84
2023-02-19T15:30:29.459Z,101896.84
2023-02-19T15:33:20.001Z,101902.13
2023-02-19T15:36:07.558Z,101891.53
2023-02-19T15:38:55.713Z,101895.50
2023-02-19T15:41:42.701Z,101882.19
2023-02-19T15:44:38.029Z,101876.06
2023-02-19T15:47:33.084Z,101869.47
2023-02-19T15:50:28.752Z,101869.72
2023-02-19T15:53:20.206Z,101859.72
2023-02-19T15:56:16.121Z,101854.78
2023-02-19T15:59:06.499Z,101853.38
2023-02-19T16:01:51.786Z,101865.16
2023-02-19T16:04:36.921Z,101859.75
2023-02-19T16:07:26.168Z,101862.91
2023-02-19T16:10:24.643Z,101872.63
2023-02-19T16:13:11.733Z,101865.78
2023-02-19T16:16:15.948Z,101863.53
2023-02-19T16:19:01.377Z,101858.94
2023-02-19T16:21:46.557Z,101866.88
2023-02-19T16:24:37.015Z,101868.69
2023-02-19T16:27:32.265Z,101869.66
2023-02-19T16:30:17.283Z,101873.19
2023-02-19T16:33:22.224Z,101884.47
2023-02-19T16:36:29.736Z,101886.97
2023-02-19T16:39:17.000Z,101900.59
2023-02-19T16:42:02.101Z,101904.09
2023-02-19T16:44:47.728Z,101910.72
2023-02-19T16:47:36.738Z,101912.13
2023-02-19T16:50:24.211Z,101918.28
2023-02-19T16:53:22.320Z,101922.00
2023-02-19T16:56:15.232Z,101922.50
2023-02-19T16:59:00.253Z,101931.88
2023-02-19T17:01:45.176Z,101935.47
2023-02-19T17:04:30.347Z,101955.31
2023-02-19T17:07:16.934Z,101975.50
2023-02-19T17:10:02.165Z,101969.97
2023-02-19T17:12:47.139Z,101963.00
2023-02-19T17:15:32.042Z,101973.94
2023-02-19T17:18:17.457Z,101988.84
2023-02-19T17:21:15.284Z,101989.66
2023-02-19T17:24:00.259Z,101994.84
2023-02-19T17:26:45.398Z,102001.31
2023-02-19T17:29:33.766Z,102003.00
2023-02-19T17:32:18.558Z,102000.13
2023-02-19T17:35:03.417Z,102013.09
2023-02-19T17:37:48.718Z,102009.22
2023-02-19T17:40:34.066Z,102020.06
2023-02-19T17:43:18.937Z,102032.53
2023-02-19T17:46:04.051Z,102021.88
2023-02-19T17:48:49.295Z,102026.06
2023-02-19T17:51:34.761Z,102037.13
2023-02-19T17:54:19.696Z,102032.66
2023-02-19T17:57:04.608Z,102037.94
2023-02-19T17:59:49.657Z,102030.97
2023-02-19T18:02:34.673Z,102045.53
2023-02-19T18:05:20.066Z,102046.59
2023-02-19T18:08:05.026Z,102047.19
2023-02-19T18:10:50.232Z,102040.66
2023-02-19T18:13:35.158Z,102046.19
2023-02-19T18:16:21.902Z,102045.94
2023-02-19T18:19:07.260Z,102043.56
2023-02-19T18:21:52.581Z,102051.22
2023-02-19T18:24:37.512Z,102045.19
2023-02-19T18:27:23.444Z,102041.59
2023-02-19T18:30:09.338Z,102041.19
2023-02-19T18:32:54.456Z,102047.69
2023-02-19T18:35:39.294Z,102054.97
2023-02-19T18:38:24.355Z,102044.41
2023-02-19T18:41:13.564Z,102047.28
2023-02-19T18:43:59.730Z,102047.06
2023-02-19T18:46:44.961Z,102048.75
2023-02-19T18:49:32.111Z,102050.41
2023-02-19T18:52:20.228Z,102049.16
2023-02-19T18:55:05.740Z,102057.94
2023-02-19T18:57:50.962Z,102054.69
2023-02-19T19:00:35.954Z,102052.03
2023-02-19T19:03:20.862Z,102051.31
2023-02-19T19:06:05.816Z,102062.72
2023-02-19T19:08:50.773Z,102066.09
2023-02-19T19:11:36.162Z,102074.94
2023-02-19T19:14:21.423Z,102078.97
2023-02-19T19:17:06.308Z,102068.31
2023-02-19T19:19:51.370Z,102081.41
2023-02-19T19:22:36.559Z,102072.66
2023-02-19T19:25:22.569Z,102069.06
2023-02-19T19:28:07.785Z,102069.16
2023-02-19T19:30:53.238Z,102072.88
2023-02-19T19:33:38.428Z,102081.75
2023-02-19T19:36:23.565Z,102086.94
2023-02-19T19:39:09.088Z,102091.72
2023-02-19T19:41:55.671Z,102083.44
2023-02-19T19:44:40.955Z,102082.31
2023-02-19T19:47:26.000Z,102084.94
2023-02-19T19:50:13.029Z,102091.81
2023-02-19T19:52:57.814Z,102095.72
2023-02-19T19:55:42.726Z,102106.06
2023-02-19T19:58:27.967Z,102099.78
2023-02-19T20:01:13.400Z,102106.50
2023-02-19T20:03:58.295Z,102100.78
2023-02-19T20:06:43.204Z,102086.97
2023-02-19T20:09:28.965Z,102093.44
2023-02-19T20:12:13.930Z,102094.44
2023-02-19T20:14:59.083Z,102094.44
2023-02-19T20:17:44.228Z,102090.66
2023-02-19T20:20:29.745Z,102102.28
2023-02-19T20:23:14.736Z,102105.41
2023-02-19T20:25:59.565Z,102110.34
2023-02-19T20:28:46.330Z,102112.03
2023-02-19T20:31:31.452Z,102112.16
2023-02-19T20:34:17.392Z,102115.88
2023-02-19T20:37:02.478Z,102114.59
2023-02-19T20:39:47.541Z,102117.97
2023-02-19T20:42:32.585Z,102112.94
2023-02-19T20:45:17.912Z,102124.84
2023-02-19T20:48:03.174Z,102130.22
2023-02-19T20:50:48.413Z,102123.59
2023-02-19T20:53:33.321Z,102131.41
2023-02-19T20:56:18.351Z,102131.50
2023-02-19T20:59:03.251Z,102136.91
2023-02-19T21:01:49.146Z,102130.13
2023-02-19T21:04:34.055Z,102130.03
2023-02-19T21:07:19.777Z,102127.69
2023-02-19T21:10:05.349Z,102124.84
2023-02-19T21:12:52.214Z,102128.03
2023-02-19T21:15:37.530Z,102141.97
2023-02-19T21:18:22.685Z,102149.56
2023-02-19T21:21:07.517Z,102148.50
2023-02-19T21:23:53.585Z,102153.91
2023-02-19T21:26:40.276Z,102155.69
2023-02-19T21:29:25.889Z,102155.06
2023-02-19T21:32:11.075Z,102165.69
2023-02-19T21:34:56.710Z,102164.78
2023-02-19T21:37:43.306Z,102165.72
2023-02-19T21:40:29.884Z,102179.22
2023-02-19T21:43:15.087Z,102160.97
2023-02-19T21:46:00.205Z,102166.34
2023-02-19T21:48:50.795Z,102162.13
2023-02-19T21:51:38.565Z,102164.75
2023-02-19T21:54:25.243Z,102164.97
2023-02-19T21:57:10.364Z,102158.09
2023-02-19T21:59:55.467Z,102157.69
2023-02-19T22:02:41.961Z,102155.88
2023-02-19T22:05:27.085Z,102173.91
2023-02-19T22:08:11.976Z,102170.75
2023-02-19T22:10:57.057Z,102169.47
2023-02-19T22:13:42.037Z,102164.19
2023-02-19T22:16:28.521Z,102157.72
2023-02-19T22:19:13.726Z,102177.06
2023-02-19T22:21:58.851Z,102159.69
2023-02-19T22:24:43.636Z,102154.00
2023-02-19T22:27:29.124Z,102154.63
2023-02-19T22:30:14.612Z,102162.75
2023-02-19T22:32:59.560Z,102164.72
2023-02-19T22:35:44.441Z,102166.00
2023-02-19T22:38:29.531Z,102173.69
2023-02-19T22:41:15.607Z,102179.81
2023-02-19T22:44:00.954Z,102178.13
2023-02-19T22:46:48.943Z,102178.22
2023-02-19T22:49:33.866Z,102178.69
2023-02-19T22:52:18.651Z,102175.72
2023-02-19T22:55:03.925Z,102187.56
2023-02-19T22:57:48.821Z,102191.78
2023-02-19T23:00:33.757Z,102175.78
2023-02-19T23:03:18.759Z,102184.03
2023-02-19T23:06:04.611Z,102179.75
2023-02-19T23:08:50.029Z,102168.78
2023-02-19T23:11:38.897Z,102165.47
2023-02-19T23:14:24.222Z,102162.84
2023-02-19T23:17:09.070Z,102161.25
2023-02-19T23:19:54.182Z,102162.31
2023-02-19T23:22:39.850Z,102166.16
2023-02-19T23:25:24.729Z,102164.25
2023-02-19T23:28:09.501Z,102173.69
2023-02-19T23:30:54.690Z,102166.38
2023-02-19T23:33:39.678Z,102169.75
2023-02-19T23:36:24.688Z,102172.00
2023-02-19T23:39:15.092Z,102160.88
2023-02-19T23:42:00.195Z,102154.59
2023-02-19T23:44:48.512Z,102162.50
2023-02-19T23:47:33.615Z,102156.66
2023-02-19T23:50:18.539Z,102159.94
2023-02-19T23:53:04.304Z,102154.22
2023-02-19T23:55:49.177Z,102146.63
2023-02-19T23:58:34.087Z,102145.09
